Time;durP1;ratioP1;P1;durP2;ratioP2;P2;SDS_P1;SDS_P2;PMS_P1;PMS_P2;Temp;Humidity;BMP_temperature;BMP_pressure;BME280_temperature;BME280_humidity;BME280_pressure;Samples;Min_cycle;Max_cycle;Signal;HPM_P1;HPM_P2
2021/06/05 00:00:55;;;;;;;16.23;11.70;;;16.80;99.90;;;;;;5115222;28;20944;-68
2021/06/05 00:03:22;;;;;;;12.07;9.90;;;16.70;99.90;;;;;;5116596;28;20656;-68
2021/06/05 00:05:52;;;;;;;12.30;11.00;;;16.60;99.90;;;;;;5116349;28;20842;-67
2021/06/05 00:08:20;;;;;;;15.20;11.17;;;16.40;99.90;;;;;;5115553;28;20472;-67
2021/06/05 00:10:55;;;;;;;14.70;11.57;;;16.30;99.90;;;;;;5116210;28;20454;-68
2021/06/05 00:13:24;;;;;;;18.73;12.57;;;16.10;99.90;;;;;;5116492;28;20392;-68
2021/06/05 00:15:51;;;;;;;14.80;12.20;;;16.10;99.90;;;;;;5115943;28;20424;-67
2021/06/05 00:18:17;;;;;;;15.80;13.20;;;16.00;99.90;;;;;;5114746;28;20861;-68
2021/06/05 00:20:43;;;;;;;15.50;11.60;;;15.90;99.90;;;;;;5116041;28;20585;-67
2021/06/05 00:23:12;;;;;;;15.53;11.27;;;15.70;99.90;;;;;;5116223;28;20436;-68
2021/06/05 00:25:37;;;;;;;15.10;11.47;;;15.90;99.90;;;;;;5116145;28;20981;-67
2021/06/05 00:28:04;;;;;;;13.87;11.97;;;16.00;99.90;;;;;;5116592;28;20412;-68
2021/06/05 00:30:31;;;;;;;18.80;13.97;;;16.00;99.90;;;;;;5115988;28;20424;-66
2021/06/05 00:32:57;;;;;;;14.73;10.33;;;15.90;99.90;;;;;;5116594;28;20436;-67
2021/06/05 00:35:24;;;;;;;13.57;11.37;;;16.00;99.90;;;;;;5115952;28;20485;-70
2021/06/05 00:37:50;;;;;;;12.50;11.17;;;16.20;99.90;;;;;;5116226;28;20890;-67
2021/06/05 00:40:18;;;;;;;15.30;11.07;;;16.00;99.90;;;;;;5114512;28;20467;-68
2021/06/05 00:42:44;;;;;;;15.70;10.97;;;15.90;99.90;;;;;;5116182;28;20203;-68
2021/06/05 00:45:14;;;;;;;12.60;11.30;;;16.00;99.90;;;;;;5115701;28;20471;-67
2021/06/05 00:47:40;;;;;;;14.57;11.20;;;16.10;99.90;;;;;;5114494;28;20420;-69
2021/06/05 00:50:09;;;;;;;13.40;10.40;;;16.00;99.90;;;;;;5115553;28;20449;-67
2021/06/05 00:52:36;;;;;;;13.10;10.53;;;15.90;99.90;;;;;;5115964;28;20172;-67
2021/06/05 00:55:04;;;;;;;12.80;11.23;;;16.20;99.90;;;;;;5115473;28;20400;-68
2021/06/05 00:57:30;;;;;;;12.80;10.23;;;16.10;99.90;;;;;;5114291;28;20470;-67
2021/06/05 00:59:55;;;;;;;10.03;9.03;;;16.10;99.90;;;;;;5115396;28;20404;-67
2021/06/05 01:02:21;;;;;;;10.87;9.70;;;16.10;99.90;;;;;;5115803;28;20163;-69
2021/06/05 01:04:46;;;;;;;10.80;9.70;;;16.10;99.90;;;;;;5115367;28;20688;-68
2021/06/05 01:07:25;;;;;;;12.93;9.57;;;15.90;99.90;;;;;;5114045;28;20214;-69
2021/06/05 01:10:00;;;;;;;10.50;9.50;;;15.80;99.90;;;;;;5115227;28;20255;-69
2021/06/05 01:12:48;;;;;;;11.37;10.17;;;15.90;99.90;;;;;;5114067;28;20427;-67
2021/06/05 01:15:23;;;;;;;12.93;10.13;;;16.10;99.90;;;;;;5113769;28;20440;-69
2021/06/05 01:17:56;;;;;;;16.30;10.73;;;16.00;99.90;;;;;;5114819;28;20954;-68
2021/06/05 01:20:58;;;;;;;12.10;10.00;;;15.80;99.90;;;;;;5115220;28;20427;-68
2021/06/05 01:23:46;;;;;;;14.20;9.20;;;15.70;99.90;;;;;;5113710;28;20456;-68
2021/06/05 01:26:19;;;;;;;13.97;9.40;;;15.60;99.90;;;;;;5115039;28;20439;-69
2021/06/05 01:28:57;;;;;;;12.97;9.27;;;15.50;99.90;;;;;;5113529;28;20407;-69
2021/06/05 01:31:28;;;;;;;15.23;9.70;;;15.40;99.90;;;;;;5114917;28;20458;-69
2021/06/05 01:33:55;;;;;;;12.47;10.50;;;15.40;99.90;;;;;;5113540;28;20431;-68
2021/06/05 01:36:23;;;;;;;13.57;10.53;;;15.70;99.90;;;;;;5114681;28;20428;-69
2021/06/05 01:38:52;;;;;;;11.17;10.10;;;15.40;99.90;;;;;;5114702;28;20401;-69
2021/06/05 01:41:21;;;;;;;14.80;9.87;;;15.30;99.90;;;;;;5114688;28;20472;-68
2021/06/05 01:43:48;;;;;;;13.50;10.57;;;15.20;99.90;;;;;;5113245;28;20506;-68
2021/06/05 01:46:16;;;;;;;10.37;9.27;;;15.00;99.90;;;;;;5113339;28;20948;-68
2021/06/05 01:48:41;;;;;;;14.93;10.10;;;15.10;99.90;;;;;;5112930;28;20537;-68
2021/06/05 01:51:10;;;;;;;13.10;10.60;;;15.20;99.90;;;;;;5114402;28;20471;-68
2021/06/05 01:53:41;;;;;;;12.70;10.87;;;15.10;99.90;;;;;;5114564;28;20200;-68
2021/06/05 01:56:14;;;;;;;13.80;9.97;;;15.30;99.90;;;;;;5114264;28;20803;-68
2021/06/05 01:58:42;;;;;;;13.97;10.60;;;15.10;99.90;;;;;;5114465;28;20552;-68
2021/06/05 02:01:09;;;;;;;15.03;11.40;;;15.30;99.90;;;;;;5113060;28;20504;-67
2021/06/05 02:03:35;;;;;;;11.47;10.17;;;15.20;99.90;;;;;;5113113;28;20444;-68
2021/06/05 02:06:01;;;;;;;14.10;11.07;;;15.20;99.90;;;;;;5114224;28;20450;-68
2021/06/05 02:08:27;;;;;;;12.13;10.80;;;15.10;99.90;;;;;;5114268;28;20396;-68
2021/06/05 02:10:59;;;;;;;15.87;10.83;;;15.10;99.90;;;;;;5114140;28;20232;-68
2021/06/05 02:13:56;;;;;;;11.20;10.10;;;15.00;99.90;;;;;;5114400;28;20406;-68
2021/06/05 02:16:29;;;;;;;11.90;10.70;;;14.90;99.90;;;;;;5113913;28;20459;-68
2021/06/05 02:19:08;;;;;;;12.30;10.57;;;14.90;99.90;;;;;;5112909;28;20408;-68
2021/06/05 02:21:36;;;;;;;13.33;10.30;;;14.90;99.90;;;;;;5114075;28;20447;-68
2021/06/05 02:24:15;;;;;;;13.40;9.60;;;14.90;99.90;;;;;;5112829;28;20408;-68
2021/06/05 02:26:42;;;;;;;12.93;9.90;;;15.00;99.90;;;;;;5114328;28;20864;-68
2021/06/05 02:29:10;;;;;;;10.80;9.23;;;14.90;99.90;;;;;;5114156;28;20456;-68
2021/06/05 02:31:38;;;;;;;11.00;9.33;;;15.00;99.90;;;;;;5114226;28;20482;-67
2021/06/05 02:34:08;;;;;;;10.87;9.83;;;14.90;99.90;;;;;;5113963;28;20690;-68
2021/06/05 02:36:38;;;;;;;10.90;9.80;;;15.00;99.90;;;;;;5113771;28;21024;-67
2021/06/05 02:39:06;;;;;;;11.20;9.83;;;15.00;99.90;;;;;;5114537;28;20415;-68
2021/06/05 02:41:54;;;;;;;10.70;9.57;;;14.80;99.90;;;;;;5114088;28;20776;-68
2021/06/05 02:44:23;;;;;;;15.27;10.33;;;14.80;99.90;;;;;;5114000;28;20399;-68
2021/06/05 02:46:49;;;;;;;12.97;10.30;;;14.90;99.90;;;;;;5113964;28;20454;-68
2021/06/05 02:49:18;;;;;;;13.20;10.87;;;14.80;99.90;;;;;;5112638;28;20408;-68
2021/06/05 02:51:46;;;;;;;13.97;10.10;;;15.00;99.90;;;;;;5113931;28;20443;-68
2021/06/05 02:54:12;;;;;;;12.60;10.00;;;15.00;99.90;;;;;;5113788;28;20400;-68
2021/06/05 02:56:37;;;;;;;12.10;10.80;;;14.80;99.90;;;;;;5113869;28;20927;-67
2021/06/05 02:59:04;;;;;;;14.47;9.13;;;14.70;99.90;;;;;;5114225;28;20312;-68
2021/06/05 03:01:30;;;;;;;11.80;10.23;;;14.70;99.90;;;;;;5117760;28;20191;-68
2021/06/05 03:03:55;;;;;;;12.50;10.20;;;14.60;99.90;;;;;;5117528;28;20487;-68
2021/06/05 03:06:21;;;;;;;14.67;10.50;;;14.60;99.90;;;;;;5117578;28;20253;-68
2021/06/05 03:08:47;;;;;;;11.87;10.70;;;14.50;99.90;;;;;;5117436;28;20633;-70
2021/06/05 03:11:16;;;;;;;13.03;10.37;;;14.50;99.90;;;;;;5117405;28;20290;-68
2021/06/05 03:13:42;;;;;;;13.80;11.40;;;14.60;99.90;;;;;;5116122;28;20172;-68
2021/06/05 03:16:08;;;;;;;11.63;10.30;;;14.60;99.90;;;;;;5115610;28;20504;-69
2021/06/05 03:18:34;;;;;;;14.53;11.00;;;14.80;99.90;;;;;;5117287;28;20460;-68
2021/06/05 03:21:01;;;;;;;12.27;11.03;;;15.00;99.90;;;;;;5117288;28;20945;-67
2021/06/05 03:23:29;;;;;;;12.67;11.37;;;14.80;99.90;;;;;;5117104;28;20432;-68
2021/06/05 03:25:55;;;;;;;12.10;10.90;;;14.70;99.90;;;;;;5117207;28;20464;-68
2021/06/05 03:28:23;;;;;;;15.67;11.97;;;14.70;99.90;;;;;;5117301;28;20392;-69
2021/06/05 03:30:50;;;;;;;13.17;11.33;;;14.70;99.90;;;;;;5116961;28;20454;-67
2021/06/05 03:33:17;;;;;;;13.10;11.20;;;14.90;99.90;;;;;;5115951;28;20449;-67
2021/06/05 03:35:43;;;;;;;20.73;11.73;;;14.80;99.90;;;;;;5116959;28;20431;-68
2021/06/05 03:38:10;;;;;;;18.20;13.77;;;14.80;99.90;;;;;;5117061;28;20580;-68
2021/06/05 03:40:36;;;;;;;18.73;13.67;;;14.80;99.90;;;;;;5117086;28;20440;-68
2021/06/05 03:43:02;;;;;;;19.07;14.50;;;14.90;99.90;;;;;;5117434;28;20763;-68
2021/06/05 03:45:28;;;;;;;20.63;13.97;;;15.00;99.90;;;;;;5116902;28;20840;-68
2021/06/05 03:47:55;;;;;;;15.67;13.33;;;15.00;99.90;;;;;;5115789;28;20756;-67
2021/06/05 03:50:25;;;;;;;17.00;13.47;;;15.00;99.90;;;;;;5115559;28;20460;-68
2021/06/05 03:52:51;;;;;;;22.07;15.90;;;15.10;99.90;;;;;;5117381;28;20821;-68
2021/06/05 03:55:18;;;;;;;16.67;14.23;;;15.20;99.90;;;;;;5116812;28;20435;-68
2021/06/05 03:57:44;;;;;;;23.87;15.40;;;15.20;99.90;;;;;;5116963;28;20468;-68
2021/06/05 04:00:14;;;;;;;16.80;13.63;;;15.50;99.90;;;;;;5116549;28;20453;-67
2021/06/05 04:02:40;;;;;;;26.63;15.37;;;15.40;99.90;;;;;;5116515;28;20176;-67
2021/06/05 04:05:06;;;;;;;18.10;14.57;;;15.50;99.90;;;;;;5115173;28;20507;-68
2021/06/05 04:07:32;;;;;;;22.60;14.50;;;15.60;99.90;;;;;;5116865;28;20416;-68
2021/06/05 04:09:58;;;;;;;17.80;14.73;;;15.70;99.90;;;;;;5116235;28;20396;-67
2021/06/05 04:12:26;;;;;;;17.13;13.93;;;15.70;99.90;;;;;;5116873;28;20179;-68
2021/06/05 04:14:52;;;;;;;17.13;13.87;;;15.90;99.90;;;;;;5115084;28;20605;-67
2021/06/05 04:17:17;;;;;;;15.17;12.60;;;16.00;99.90;;;;;;5116077;28;20488;-68
2021/06/05 04:19:43;;;;;;;16.73;14.27;;;16.10;99.90;;;;;;5116316;28;20168;-68
2021/06/05 04:22:10;;;;;;;17.13;13.10;;;16.10;99.90;;;;;;5116456;28;20443;-68
2021/06/05 04:24:36;;;;;;;16.17;13.07;;;16.10;99.90;;;;;;5114944;28;20182;-68
2021/06/05 04:27:03;;;;;;;17.77;11.77;;;16.10;99.90;;;;;;5116229;28;20444;-69
2021/06/05 04:29:30;;;;;;;13.83;11.70;;;16.20;99.90;;;;;;5114882;28;20404;-68
2021/06/05 04:31:55;;;;;;;14.03;11.87;;;16.30;99.90;;;;;;5116234;28;20467;-68
2021/06/05 04:34:21;;;;;;;13.87;12.43;;;16.40;99.90;;;;;;5116028;28;20404;-68
2021/06/05 04:36:51;;;;;;;12.27;11.07;;;16.60;99.90;;;;;;5116003;28;20200;-68
2021/06/05 04:39:17;;;;;;;11.13;9.93;;;16.70;99.90;;;;;;5116010;28;20164;-68
2021/06/05 04:41:43;;;;;;;13.27;11.30;;;16.90;99.90;;;;;;5114451;28;20871;-68
2021/06/05 04:44:09;;;;;;;11.80;10.60;;;17.00;99.90;;;;;;5114725;28;20412;-68
2021/06/05 04:46:35;;;;;;;13.43;11.03;;;17.10;99.90;;;;;;5115794;28;20467;-68
2021/06/05 04:49:00;;;;;;;13.70;11.47;;;17.20;99.90;;;;;;5114396;28;20928;-68
2021/06/05 04:51:28;;;;;;;13.43;11.30;;;17.20;99.90;;;;;;5115805;28;20199;-68
2021/06/05 04:53:54;;;;;;;13.77;10.70;;;17.20;99.90;;;;;;5115589;28;20168;-68
2021/06/05 04:56:45;;;;;;;12.37;10.20;;;17.20;99.90;;;;;;5114012;28;20454;-68
2021/06/05 04:59:13;;;;;;;15.37;12.67;;;17.40;99.90;;;;;;5115661;28;20401;-69
2021/06/05 05:01:39;;;;;;;13.23;10.00;;;17.40;99.90;;;;;;5115564;28;20455;-68
2021/06/05 05:04:06;;;;;;;11.90;10.70;;;17.60;99.90;;;;;;5113707;28;20409;-69
2021/06/05 05:06:32;;;;;;;12.23;10.47;;;17.60;99.90;;;;;;5114675;28;20204;-68
2021/06/05 05:08:58;;;;;;;12.00;10.47;;;17.80;99.90;;;;;;5114911;28;20793;-68
2021/06/05 05:11:25;;;;;;;13.63;9.80;;;17.90;99.90;;;;;;5113705;28;20500;-69
2021/06/05 05:13:50;;;;;;;10.37;9.30;;;17.90;99.90;;;;;;5112251;28;20396;-68
2021/06/05 05:16:21;;;;;;;13.20;10.03;;;18.00;99.90;;;;;;5114502;28;20444;-69
2021/06/05 05:18:48;;;;;;;13.67;10.37;;;18.10;99.90;;;;;;5114748;28;20199;-68
2021/06/05 05:21:17;;;;;;;12.80;10.27;;;18.30;99.90;;;;;;5114399;28;20440;-68
2021/06/05 05:23:43;;;;;;;10.90;9.60;;;18.40;99.90;;;;;;5113598;28;20422;-68
2021/06/05 05:26:11;;;;;;;11.10;9.67;;;18.50;99.90;;;;;;5114105;28;20505;-68
2021/06/05 05:28:37;;;;;;;11.40;9.40;;;18.50;99.90;;;;;;5115017;27;20196;-68
2021/06/05 05:31:06;;;;;;;11.67;9.77;;;18.70;99.90;;;;;;5114741;28;20459;-68
2021/06/05 05:33:37;;;;;;;10.30;8.77;;;18.90;99.90;;;;;;5114369;28;20488;-69
2021/06/05 05:36:05;;;;;;;10.80;8.90;;;19.00;99.90;;;;;;5114546;28;20440;-69
2021/06/05 05:38:31;;;;;;;9.00;8.03;;;19.10;99.90;;;;;;5114323;28;20456;-68
2021/06/05 05:40:56;;;;;;;9.10;8.20;;;19.20;99.90;;;;;;5112854;28;20962;-68
2021/06/05 05:43:22;;;;;;;12.80;8.67;;;19.20;99.90;;;;;;5112576;28;20176;-68
2021/06/05 05:45:48;;;;;;;8.23;7.43;;;19.40;99.90;;;;;;5112309;28;20262;-69
2021/06/05 05:48:14;;;;;;;9.50;7.43;;;19.60;99.90;;;;;;5114687;28;20202;-69
2021/06/05 05:50:41;;;;;;;9.37;7.60;;;19.60;99.90;;;;;;5114480;28;20209;-68
2021/06/05 05:53:07;;;;;;;7.70;6.67;;;19.70;99.90;;;;;;5114439;28;20410;-69
2021/06/05 05:55:33;;;;;;;8.30;7.20;;;19.80;99.90;;;;;;5114379;28;20513;-69
2021/06/05 05:58:10;;;;;;;8.93;6.60;;;20.00;99.90;;;;;;5114786;28;20250;-68
2021/06/05 06:00:38;;;;;;;7.53;6.73;;;20.10;99.90;;;;;;5114427;28;20521;-69
2021/06/05 06:03:04;;;;;;;7.83;6.17;;;20.10;99.90;;;;;;5115035;28;20419;-68
2021/06/05 06:05:30;;;;;;;25.40;7.10;;;20.30;99.90;;;;;;5113670;28;20450;-68
2021/06/05 06:07:56;;;;;;;7.90;6.47;;;20.50;99.90;;;;;;5111279;28;20418;-68
2021/06/05 06:10:22;;;;;;;6.90;5.93;;;20.60;99.90;;;;;;5112209;28;20594;-68
2021/06/05 06:12:48;;;;;;;6.00;5.30;;;20.80;99.90;;;;;;5113986;28;20187;-69
2021/06/05 06:15:17;;;;;;;6.63;6.03;;;21.30;99.90;;;;;;5113592;28;20539;-69
2021/06/05 06:17:44;;;;;;;9.83;5.30;;;21.60;99.90;;;;;;5110358;28;20266;-68
2021/06/05 06:20:16;;;;;;;6.00;5.27;;;21.50;99.90;;;;;;5111996;28;20456;-68
2021/06/05 06:22:42;;;;;;;5.57;5.07;;;21.30;99.90;;;;;;5110796;28;20471;-69
2021/06/05 06:25:08;;;;;;;5.67;5.10;;;21.50;99.90;;;;;;5111703;28;20503;-68
2021/06/05 06:27:35;;;;;;;6.40;5.80;;;21.90;99.90;;;;;;5110801;28;20384;-69
2021/06/05 06:30:01;;;;;;;5.90;5.33;;;22.30;99.90;;;;;;5111979;28;20781;-68
2021/06/05 06:32:27;;;;;;;7.40;5.27;;;22.40;99.90;;;;;;5114459;28;20819;-68
2021/06/05 06:34:53;;;;;;;8.77;5.47;;;22.30;99.90;;;;;;5117924;28;20425;-68
2021/06/05 06:37:19;;;;;;;6.10;4.87;;;22.20;99.90;;;;;;5117094;28;20305;-68
2021/06/05 06:39:44;;;;;;;5.50;5.00;;;22.00;99.90;;;;;;5118253;28;20195;-69
2021/06/05 06:42:10;;;;;;;5.50;5.00;;;22.20;99.90;;;;;;5118432;28;20199;-69
2021/06/05 06:44:36;;;;;;;6.63;4.90;;;22.20;99.90;;;;;;5118276;28;20185;-69
2021/06/05 06:47:06;;;;;;;5.17;4.43;;;22.50;99.90;;;;;;5118278;28;20432;-69
2021/06/05 06:49:32;;;;;;;4.70;4.30;;;22.70;99.90;;;;;;5116655;27;20540;-68
2021/06/05 06:51:58;;;;;;;11.93;5.40;;;22.70;99.90;;;;;;5116176;28;20490;-68
2021/06/05 06:54:24;;;;;;;8.13;4.97;;;22.70;99.90;;;;;;5114480;28;20403;-69
2021/06/05 06:56:49;;;;;;;5.13;4.63;;;22.90;99.90;;;;;;5115816;28;20558;-69
2021/06/05 06:59:15;;;;;;;5.47;4.73;;;23.20;99.90;;;;;;5114398;28;20419;-68
2021/06/05 07:01:41;;;;;;;5.10;4.03;;;23.10;99.90;;;;;;5115798;28;20218;-68
2021/06/05 07:04:07;;;;;;;5.73;4.20;;;23.10;99.90;;;;;;5115636;28;20445;-69
2021/06/05 07:06:33;;;;;;;6.30;4.60;;;23.40;99.90;;;;;;5116030;28;20435;-68
2021/06/05 07:08:59;;;;;;;5.00;4.50;;;23.30;99.90;;;;;;5116331;28;20180;-69
2021/06/05 07:11:32;;;;;;;8.10;6.20;;;23.40;99.90;;;;;;5117656;28;20511;-68
2021/06/05 07:14:03;;;;;;;4.73;4.33;;;23.60;99.90;;;;;;5117445;28;20180;-68
2021/06/05 07:16:30;;;;;;;6.10;5.60;;;23.60;99.90;;;;;;5117258;28;20935;-69
2021/06/05 07:18:56;;;;;;;5.50;5.00;;;24.00;99.90;;;;;;5117499;28;20927;-69
2021/06/05 07:21:22;;;;;;;3.80;3.50;;;23.90;99.90;;;;;;5116061;28;20444;-69
2021/06/05 07:23:48;;;;;;;5.30;4.67;;;24.10;99.90;;;;;;5117396;28;20186;-69
2021/06/05 07:26:23;;;;;;;4.17;3.87;;;24.10;99.90;;;;;;5116078;28;21032;-68
2021/06/05 07:28:51;;;;;;;3.87;3.57;;;24.20;99.90;;;;;;5117313;28;20194;-69
2021/06/05 07:31:24;;;;;;;4.30;3.87;;;24.00;99.90;;;;;;5115783;28;20451;-69
2021/06/05 07:33:50;;;;;;;3.80;3.50;;;24.40;99.90;;;;;;5117205;28;20391;-68
2021/06/05 07:36:27;;;;;;;4.97;4.03;;;24.90;99.90;;;;;;5117284;28;20443;-68
2021/06/05 07:38:53;;;;;;;4.90;4.40;;;24.90;99.60;;;;;;5115769;28;20523;-69
2021/06/05 07:41:19;;;;;;;5.40;4.90;;;24.60;99.90;;;;;;5117109;28;20782;-69
2021/06/05 07:43:45;;;;;;;6.70;3.90;;;24.40;99.70;;;;;;5115681;28;20554;-69
2021/06/05 07:46:10;;;;;;;5.50;4.70;;;24.50;99.40;;;;;;5116142;28;20199;-69
2021/06/05 07:48:36;;;;;;;7.57;4.87;;;24.10;99.20;;;;;;5116934;28;20185;-69
2021/06/05 07:51:03;;;;;;;3.80;3.40;;;24.10;99.50;;;;;;5115544;28;20606;-69
2021/06/05 07:53:29;;;;;;;5.10;4.60;;;24.30;99.30;;;;;;5116872;28;20424;-69
2021/06/05 07:55:54;;;;;;;7.23;4.20;;;25.20;99.30;;;;;;5116741;28;20417;-69
2021/06/05 07:58:20;;;;;;;7.47;4.13;;;25.40;97.50;;;;;;5116666;28;20216;-69
2021/06/05 08:00:46;;;;;;;9.23;4.03;;;25.10;97.40;;;;;;5115298;28;20198;-70
2021/06/05 08:03:12;;;;;;;4.37;3.60;;;24.70;96.30;;;;;;5115447;28;20649;-70
2021/06/05 08:05:40;;;;;;;4.53;3.73;;;24.50;96.60;;;;;;5115310;28;20427;-69
2021/06/05 08:08:06;;;;;;;4.77;4.40;;;24.60;96.80;;;;;;5115499;28;20931;-69
2021/06/05 08:10:33;;;;;;;5.63;3.80;;;24.90;96.40;;;;;;5115184;28;20457;-69
2021/06/05 08:12:59;;;;;;;4.50;4.10;;;24.80;97.00;;;;;;5113267;28;20506;-69
2021/06/05 08:15:28;;;;;;;4.57;4.17;;;24.70;94.70;;;;;;5094637;28;20510;-68
2021/06/05 08:17:55;;;;;;;5.30;3.70;;;24.80;95.30;;;;;;5109469;28;20242;-69
2021/06/05 08:20:27;;;;;;;5.17;4.67;;;24.80;95.90;;;;;;5112208;28;20434;-69
2021/06/05 08:22:53;;;;;;;4.80;4.40;;;25.30;95.00;;;;;;5113685;28;20419;-70
2021/06/05 08:25:19;;;;;;;4.40;4.00;;;25.40;94.10;;;;;;5112774;28;20454;-69
2021/06/05 08:27:44;;;;;;;3.67;3.47;;;25.40;94.30;;;;;;5114457;28;20178;-67
2021/06/05 08:30:16;;;;;;;6.27;3.83;;;26.20;94.70;;;;;;5114304;28;20959;-67
2021/06/05 08:32:41;;;;;;;4.60;4.20;;;26.50;93.90;;;;;;5112725;28;20186;-69
2021/06/05 08:35:08;;;;;;;5.03;4.53;;;26.60;91.70;;;;;;5113782;28;20885;-69
2021/06/05 08:37:35;;;;;;;4.70;4.30;;;26.30;93.10;;;;;;5114412;28;20546;-69
2021/06/05 08:40:03;;;;;;;4.10;3.73;;;26.40;92.40;;;;;;5115851;28;20777;-69
2021/06/05 08:42:37;;;;;;;4.40;4.00;;;25.80;90.90;;;;;;5116344;28;20423;-68
2021/06/05 08:45:05;;;;;;;4.20;3.80;;;25.70;90.30;;;;;;5115866;28;20423;-68
2021/06/05 08:47:34;;;;;;;5.93;4.37;;;25.70;91.30;;;;;;5116143;28;20919;-68
2021/06/05 08:50:03;;;;;;;4.73;4.23;;;26.00;90.50;;;;;;5115625;28;20407;-68
2021/06/05 08:52:53;;;;;;;5.23;4.40;;;26.00;90.40;;;;;;5114504;28;20424;-69
2021/06/05 08:55:22;;;;;;;5.20;4.70;;;25.50;88.10;;;;;;5114316;28;20443;-68
2021/06/05 08:57:51;;;;;;;4.90;4.27;;;25.90;90.90;;;;;;5114886;28;20474;-69
2021/06/05 09:00:29;;;;;;;4.50;4.20;;;26.00;91.30;;;;;;5114079;28;20432;-69
2021/06/05 09:02:59;;;;;;;6.70;4.27;;;26.50;91.40;;;;;;5115961;28;20424;-68
2021/06/05 09:05:31;;;;;;;5.73;4.30;;;27.00;90.20;;;;;;5115363;28;20461;-69
2021/06/05 09:07:57;;;;;;;4.87;4.47;;;27.20;90.70;;;;;;5114304;28;20416;-68
2021/06/05 09:10:25;;;;;;;6.00;4.40;;;27.10;89.20;;;;;;5115232;28;20416;-68
2021/06/05 09:12:50;;;;;;;5.20;4.70;;;26.70;89.30;;;;;;5115684;28;20412;-69
2021/06/05 09:15:31;;;;;;;4.50;4.20;;;26.80;90.20;;;;;;5115157;28;20473;-68
2021/06/05 09:18:03;;;;;;;4.13;3.70;;;27.10;87.40;;;;;;5114922;28;20315;-68
2021/06/05 09:20:41;;;;;;;4.60;4.20;;;27.30;90.00;;;;;;5115227;28;20415;-68
2021/06/05 09:23:33;;;;;;;4.63;4.23;;;27.40;90.20;;;;;;5115070;28;20409;-68
2021/06/05 09:26:19;;;;;;;3.90;3.60;;;27.70;90.00;;;;;;5114952;28;20972;-68
2021/06/05 09:28:45;;;;;;;4.60;4.07;;;27.80;87.50;;;;;;5113364;28;20423;-69
2021/06/05 09:31:20;;;;;;;18.30;4.80;;;27.50;88.40;;;;;;5114846;28;20504;-68
2021/06/05 09:33:46;;;;;;;4.90;4.50;;;27.00;90.00;;;;;;5114888;28;20176;-69
2021/06/05 09:36:34;;;;;;;5.87;4.77;;;26.30;89.20;;;;;;5114865;28;20454;-69
2021/06/05 09:39:01;;;;;;;4.90;4.50;;;26.30;89.10;;;;;;5114659;28;21067;-69
2021/06/05 09:41:41;;;;;;;5.73;4.90;;;26.50;88.70;;;;;;5114846;28;20432;-69
2021/06/05 09:44:14;;;;;;;5.33;4.83;;;26.40;88.10;;;;;;5114689;28;20472;-69
2021/06/05 09:47:03;;;;;;;4.73;4.13;;;26.40;87.40;;;;;;5115061;28;20958;-68
2021/06/05 09:49:33;;;;;;;5.43;4.47;;;26.40;87.40;;;;;;5114630;28;20406;-69
2021/06/05 09:52:01;;;;;;;4.87;4.47;;;26.50;87.50;;;;;;5114723;28;20482;-68
2021/06/05 09:54:34;;;;;;;6.53;4.47;;;27.00;88.20;;;;;;5114553;28;20942;-69
2021/06/05 09:57:24;;;;;;;5.00;4.50;;;26.60;86.60;;;;;;5114331;28;20463;-66
2021/06/05 10:00:04;;;;;;;4.63;4.33;;;26.60;87.10;;;;;;5111750;28;20498;-67
2021/06/05 10:02:31;;;;;;;6.40;4.43;;;26.90;87.00;;;;;;5111452;28;20436;-67
2021/06/05 10:05:20;;;;;;;6.50;4.80;;;27.00;88.60;;;;;;5112047;28;20396;-70
2021/06/05 10:07:46;;;;;;;6.93;5.00;;;27.20;89.30;;;;;;5111556;28;20431;-69
2021/06/05 10:10:23;;;;;;;5.27;4.77;;;26.90;89.00;;;;;;5110783;28;20440;-68
2021/06/05 10:12:50;;;;;;;4.73;4.33;;;27.30;87.90;;;;;;5112418;28;20451;-68
2021/06/05 10:15:23;;;;;;;5.20;4.70;;;27.70;87.10;;;;;;5112055;28;20420;-69
2021/06/05 10:18:00;;;;;;;5.20;4.80;;;27.10;85.90;;;;;;5110384;28;20483;-69
2021/06/05 10:20:51;;;;;;;4.93;4.50;;;27.70;84.40;;;;;;5111747;28;20559;-69
2021/06/05 10:23:46;;;;;;;5.13;4.47;;;27.10;83.90;;;;;;5112940;28;20428;-68
2021/06/05 10:26:31;;;;;;;5.20;4.80;;;26.80;85.20;;;;;;5112865;28;20464;-69
2021/06/05 10:29:04;;;;;;;5.10;4.60;;;26.60;84.60;;;;;;5113778;28;20459;-70
2021/06/05 10:31:30;;;;;;;5.27;4.77;;;26.50;85.30;;;;;;5112810;28;20454;-69
2021/06/05 10:34:03;;;;;;;5.73;4.33;;;27.20;85.00;;;;;;5112719;28;20409;-67
2021/06/05 10:36:43;;;;;;;5.87;4.70;;;27.20;83.20;;;;;;5114166;28;20444;-69
2021/06/05 10:39:19;;;;;;;6.97;6.30;;;27.70;84.50;;;;;;5114105;28;20415;-69
2021/06/05 10:41:51;;;;;;;5.80;5.30;;;28.10;82.20;;;;;;5114132;28;20499;-68
2021/06/05 10:44:17;;;;;;;5.50;5.00;;;27.50;81.30;;;;;;5114091;28;20389;-68
2021/06/05 10:46:59;;;;;;;5.60;4.40;;;27.80;81.20;;;;;;5113767;28;20503;-68
2021/06/05 10:49:42;;;;;;;5.63;4.60;;;27.50;80.20;;;;;;5114055;28;20508;-68
2021/06/05 10:52:17;;;;;;;5.23;4.80;;;27.50;80.70;;;;;;5112488;28;20507;-69
2021/06/05 10:54:52;;;;;;;4.50;4.10;;;27.40;81.60;;;;;;5113988;28;20385;-68
2021/06/05 10:57:23;;;;;;;7.80;4.83;;;27.40;80.90;;;;;;5114142;28;20866;-68
2021/06/05 10:59:50;;;;;;;4.63;4.20;;;27.10;82.50;;;;;;5113788;28;20405;-68
2021/06/05 11:02:45;;;;;;;4.73;4.33;;;27.00;81.40;;;;;;5112550;28;20438;-69
2021/06/05 11:05:16;;;;;;;4.80;4.40;;;26.90;82.80;;;;;;5113788;28;20775;-69
2021/06/05 11:07:43;;;;;;;4.87;4.37;;;27.20;82.10;;;;;;5114137;28;20475;-70
2021/06/05 11:10:09;;;;;;;5.27;4.77;;;27.40;80.90;;;;;;5113620;28;20468;-69
2021/06/05 11:12:35;;;;;;;4.47;4.17;;;27.30;79.90;;;;;;5113648;28;20420;-69
2021/06/05 11:15:00;;;;;;;4.80;4.40;;;27.40;81.40;;;;;;5113669;28;20402;-68
2021/06/05 11:17:31;;;;;;;5.50;4.30;;;27.70;80.50;;;;;;5113399;28;20243;-68
2021/06/05 11:20:04;;;;;;;5.10;4.60;;;27.70;80.90;;;;;;5114067;28;20176;-68
2021/06/05 11:22:50;;;;;;;4.57;4.27;;;27.70;83.60;;;;;;5117894;28;20969;-68
2021/06/05 11:25:15;;;;;;;6.27;4.27;;;27.90;81.00;;;;;;5108634;28;20439;-69
2021/06/05 11:27:41;;;;;;;4.63;4.20;;;27.70;79.90;;;;;;5116274;28;20433;-68
2021/06/05 11:30:21;;;;;;;4.50;4.10;;;27.60;79.80;;;;;;5117220;28;20179;-68
2021/06/05 11:32:48;;;;;;;17.73;4.87;;;27.70;81.00;;;;;;5117746;28;20179;-68
2021/06/05 11:35:44;;;;;;;4.60;4.20;;;27.80;79.20;;;;;;5117147;28;20437;-67
2021/06/05 11:38:19;;;;;;;5.47;5.03;;;27.60;79.50;;;;;;5117305;28;20460;-67
2021/06/05 11:40:51;;;;;;;4.50;4.10;;;27.40;79.10;;;;;;5116912;28;20470;-69
2021/06/05 11:43:45;;;;;;;4.97;4.57;;;27.50;78.80;;;;;;5117110;28;20499;-68
2021/06/05 11:46:16;;;;;;;4.53;4.13;;;27.40;79.20;;;;;;5112865;28;20448;-67
2021/06/05 11:48:48;;;;;;;6.27;4.37;;;27.60;78.50;;;;;;5115728;28;20426;-68
2021/06/05 11:51:25;;;;;;;7.00;5.67;;;27.50;80.50;;;;;;5116952;28;20932;-67
2021/06/05 11:53:53;;;;;;;5.57;4.13;;;27.80;77.20;;;;;;5116917;28;20449;-68
2021/06/05 11:56:33;;;;;;;4.67;4.27;;;27.80;77.60;;;;;;5116833;28;20441;-68
2021/06/05 11:59:22;;;;;;;4.50;4.10;;;27.90;78.70;;;;;;5116706;28;20580;-69
2021/06/05 12:01:48;;;;;;;4.30;4.00;;;28.40;78.70;;;;;;5116901;28;20432;-68
2021/06/05 12:04:18;;;;;;;7.23;4.20;;;29.10;78.60;;;;;;5115348;28;20419;-68
2021/06/05 12:06:47;;;;;;;4.70;4.30;;;28.80;76.80;;;;;;5116754;28;20458;-67
2021/06/05 12:09:21;;;;;;;4.90;4.40;;;28.50;76.60;;;;;;5116581;28;20407;-69
2021/06/05 12:11:54;;;;;;;4.93;4.50;;;27.70;77.60;;;;;;5116730;28;20999;-69
2021/06/05 12:17:35;;;;;;;5.80;4.13;;;27.40;77.70;;;;;;5116239;28;20479;-68
2021/06/05 12:20:19;;;;;;;4.80;4.40;;;27.90;78.60;;;;;;5116299;28;20446;-68
2021/06/05 12:22:51;;;;;;;4.77;4.37;;;27.50;78.10;;;;;;5115179;28;20845;-68
2021/06/05 12:25:31;;;;;;;4.43;4.03;;;27.40;76.70;;;;;;5116237;28;20514;-68
2021/06/05 12:28:06;;;;;;;5.20;4.40;;;27.30;77.80;;;;;;5116822;28;20418;-68
2021/06/05 12:30:32;;;;;;;4.50;4.20;;;27.70;76.50;;;;;;5116118;28;20415;-68
2021/06/05 12:33:04;;;;;;;5.37;4.30;;;27.60;76.40;;;;;;5114569;28;20941;-69
2021/06/05 12:35:36;;;;;;;4.43;4.03;;;27.50;78.50;;;;;;5116045;28;20280;-69
2021/06/05 12:38:03;;;;;;;5.63;4.93;;;27.40;78.70;;;;;;5114842;28;20475;-68
2021/06/05 12:40:55;;;;;;;5.53;4.17;;;27.70;76.90;;;;;;5114536;28;20515;-67
2021/06/05 12:43:25;;;;;;;4.87;4.40;;;27.80;77.80;;;;;;5115995;28;20821;-69
2021/06/05 12:45:51;;;;;;;5.23;4.77;;;27.70;77.80;;;;;;5115765;28;20423;-69
2021/06/05 12:48:18;;;;;;;5.20;4.30;;;28.10;77.10;;;;;;5115520;28;20404;-69
2021/06/05 12:50:46;;;;;;;4.43;4.03;;;28.10;77.20;;;;;;5115566;28;20420;-68
2021/06/05 12:53:22;;;;;;;5.57;4.93;;;27.90;77.70;;;;;;5112990;28;20423;-68
2021/06/05 12:55:53;;;;;;;4.93;4.53;;;27.90;77.60;;;;;;5113988;28;20480;-67